createdAt,value
2022-10-31T00:01:21.511Z,4.17
2022-10-31T00:03:49.784Z,4.77
2022-10-31T00:06:19.049Z,4.70
2022-10-31T00:08:47.168Z,3.47
2022-10-31T00:11:16.488Z,5.50
2022-10-31T00:13:44.418Z,6.03
2022-10-31T00:16:17.034Z,4.10
2022-10-31T00:18:45.271Z,5.33
2022-10-31T00:21:13.184Z,6.00
2022-10-31T00:23:41.100Z,5.03
2022-10-31T00:26:09.023Z,4.80
2022-10-31T00:28:38.375Z,4.77
2022-10-31T00:31:08.725Z,5.87
2022-10-31T00:33:38.569Z,5.13
2022-10-31T00:36:08.297Z,4.53
2022-10-31T00:38:36.235Z,7.40
2022-10-31T00:41:04.251Z,4.80
2022-10-31T00:43:32.204Z,4.87
2022-10-31T00:46:01.478Z,5.20
2022-10-31T00:48:29.438Z,4.43
2022-10-31T00:50:57.476Z,7.43
2022-10-31T00:53:25.494Z,4.23
2022-10-31T00:55:53.400Z,5.17
2022-10-31T00:58:21.495Z,5.40
2022-10-31T01:00:55.797Z,6.00
2022-10-31T01:03:27.727Z,5.67
2022-10-31T01:06:00.232Z,6.80
2022-10-31T01:08:28.461Z,5.33
2022-10-31T01:11:05.243Z,5.23
2022-10-31T01:13:33.418Z,4.87
2022-10-31T01:16:02.363Z,4.57
2022-10-31T01:18:32.058Z,4.90
2022-10-31T01:21:05.060Z,4.87
2022-10-31T01:23:33.976Z,4.60
2022-10-31T01:26:10.741Z,5.00
2022-10-31T01:28:40.845Z,4.77
2022-10-31T01:31:10.493Z,5.10
2022-10-31T01:33:40.466Z,4.33
2022-10-31T01:36:17.330Z,4.70
2022-10-31T01:38:45.383Z,4.70
2022-10-31T01:41:15.212Z,4.30
2022-10-31T01:43:48.905Z,4.80
2022-10-31T01:46:19.649Z,4.30
2022-10-31T01:48:49.797Z,4.97
2022-10-31T01:51:21.522Z,5.20
2022-10-31T01:53:52.066Z,5.80
2022-10-31T01:56:20.511Z,5.00
2022-10-31T01:58:48.851Z,5.70
2022-10-31T02:01:18.842Z,5.00
2022-10-31T02:03:49.102Z,4.60
2022-10-31T02:06:28.373Z,5.67
2022-10-31T02:08:59.068Z,4.10
2022-10-31T02:11:27.899Z,5.00
2022-10-31T02:13:56.860Z,5.37
2022-10-31T02:16:24.780Z,4.73
2022-10-31T02:18:54.384Z,4.53
2022-10-31T02:21:30.555Z,4.00
2022-10-31T02:24:27.440Z,4.63
2022-10-31T02:27:04.583Z,4.03
2022-10-31T02:30:04.820Z,6.10
2022-10-31T02:32:44.929Z,4.60
2022-10-31T02:35:22.946Z,5.53
2022-10-31T02:37:59.755Z,4.00
2022-10-31T02:40:32.543Z,5.17
2022-10-31T02:43:07.159Z,4.07
2022-10-31T02:45:42.044Z,4.87
2022-10-31T02:48:16.025Z,4.13
2022-10-31T02:50:51.983Z,3.43
2022-10-31T02:53:19.954Z,6.83
2022-10-31T02:56:01.164Z,4.10
2022-10-31T02:58:33.492Z,3.80
2022-10-31T03:01:52.383Z,4.40
2022-10-31T03:05:05.017Z,5.73
2022-10-31T03:07:44.421Z,4.00
2022-10-31T03:10:22.234Z,4.03
2022-10-31T03:12:58.797Z,3.80
2022-10-31T03:15:31.450Z,4.87
2022-10-31T03:18:04.293Z,4.20
2022-10-31T03:20:39.143Z,4.77
2022-10-31T03:23:13.509Z,5.50
2022-10-31T03:25:42.935Z,3.93
2022-10-31T03:28:14.183Z,3.10
2022-10-31T03:30:46.156Z,6.93
2022-10-31T03:33:19.399Z,3.90
2022-10-31T03:35:50.726Z,3.87
2022-10-31T03:38:22.031Z,3.40
2022-10-31T03:40:53.374Z,3.73
2022-10-31T03:43:25.092Z,4.13
2022-10-31T03:45:53.475Z,3.93
2022-10-31T03:48:22.635Z,7.93
2022-10-31T03:51:00.338Z,4.00
2022-10-31T03:53:35.381Z,4.60
2022-10-31T03:56:09.626Z,3.63
2022-10-31T03:58:41.818Z,5.47
2022-10-31T04:01:16.004Z,4.50
2022-10-31T04:03:46.215Z,3.57
2022-10-31T04:06:18.042Z,3.47
2022-10-31T04:08:52.816Z,3.43
2022-10-31T04:11:24.688Z,4.00
2022-10-31T04:13:55.250Z,3.70
2022-10-31T04:16:25.095Z,4.17
2022-10-31T04:18:53.093Z,3.60
2022-10-31T04:21:21.102Z,3.97
2022-10-31T04:23:50.363Z,3.70
2022-10-31T04:26:18.289Z,3.97
2022-10-31T04:28:46.261Z,3.73
2022-10-31T04:31:14.753Z,5.83
2022-10-31T04:33:42.903Z,5.93
2022-10-31T04:36:10.914Z,6.00
2022-10-31T04:38:38.928Z,4.13
2022-10-31T04:41:08.308Z,3.87
2022-10-31T04:43:36.314Z,5.40
2022-10-31T04:46:05.146Z,3.77
2022-10-31T04:48:33.181Z,3.80
2022-10-31T04:51:01.514Z,4.30
2022-10-31T04:53:29.487Z,3.80
2022-10-31T04:55:59.622Z,7.40
2022-10-31T04:58:29.296Z,3.90
2022-10-31T05:00:57.720Z,4.17
2022-10-31T05:03:25.882Z,7.90
2022-10-31T05:05:53.823Z,6.67
2022-10-31T05:08:21.780Z,10.73
2022-10-31T05:10:49.738Z,8.63
2022-10-31T05:13:17.698Z,9.20
2022-10-31T05:15:47.015Z,7.33
2022-10-31T05:18:15.002Z,6.13
2022-10-31T05:20:42.923Z,6.10
2022-10-31T05:23:10.942Z,5.77
2022-10-31T05:25:38.982Z,3.80
2022-10-31T05:28:26.908Z,7.00
2022-10-31T05:30:56.203Z,4.10
2022-10-31T05:33:24.215Z,6.87
2022-10-31T05:35:52.193Z,4.43
2022-10-31T05:38:20.122Z,4.80
2022-10-31T05:40:48.071Z,4.53
2022-10-31T05:43:16.010Z,4.70
2022-10-31T05:45:43.992Z,4.10
2022-10-31T05:48:13.298Z,5.80
2022-10-31T05:50:41.254Z,5.97
2022-10-31T05:53:10.223Z,4.80
2022-10-31T05:55:38.236Z,5.00
2022-10-31T05:58:06.192Z,6.43
2022-10-31T06:00:35.957Z,4.20
2022-10-31T06:03:05.597Z,6.80
2022-10-31T06:05:35.372Z,4.37
2022-10-31T06:08:03.737Z,7.47
2022-10-31T06:10:32.048Z,4.32
2022-10-31T06:13:00.090Z,5.40
2022-10-31T06:15:28.047Z,6.88
2022-10-31T06:18:04.852Z,3.65
2022-10-31T06:20:35.436Z,4.70
2022-10-31T06:23:04.067Z,4.37
2022-10-31T06:25:32.453Z,4.17
2022-10-31T06:28:00.471Z,3.80
2022-10-31T06:30:28.505Z,4.43
2022-10-31T06:32:56.495Z,4.83
2022-10-31T06:35:24.453Z,4.33
2022-10-31T06:37:56.809Z,5.33
2022-10-31T06:40:25.421Z,7.00
2022-10-31T06:43:00.122Z,5.30
2022-10-31T06:45:28.379Z,5.43
2022-10-31T06:48:15.908Z,5.50
2022-10-31T06:50:44.997Z,5.40
2022-10-31T06:53:15.233Z,6.10
2022-10-31T06:55:44.028Z,7.60
2022-10-31T06:58:13.268Z,6.33
2022-10-31T07:00:41.351Z,6.00
2022-10-31T07:03:13.342Z,5.43
2022-10-31T07:05:41.625Z,5.73
2022-10-31T07:08:11.379Z,5.70
2022-10-31T07:10:42.654Z,5.87
2022-10-31T07:13:13.648Z,5.70
2022-10-31T07:15:43.433Z,6.57
2022-10-31T07:18:13.623Z,5.73
2022-10-31T07:20:41.732Z,5.87
2022-10-31T07:23:11.550Z,6.03
2022-10-31T07:25:41.294Z,7.80
2022-10-31T07:28:09.507Z,7.10
2022-10-31T07:30:37.904Z,7.80
2022-10-31T07:33:06.182Z,10.30
2022-10-31T07:35:35.841Z,13.17
2022-10-31T07:38:10.874Z,12.80
2022-10-31T07:40:40.483Z,8.43
2022-10-31T07:43:11.614Z,8.87
2022-10-31T07:45:41.993Z,7.97
2022-10-31T07:48:09.972Z,9.10
2022-10-31T07:50:38.052Z,7.70
2022-10-31T07:53:09.350Z,10.43
2022-10-31T07:55:38.072Z,12.17
2022-10-31T07:58:09.167Z,11.87
2022-10-31T08:00:38.700Z,11.17
2022-10-31T08:03:08.394Z,10.87
2022-10-31T08:05:37.520Z,10.83
2022-10-31T08:08:06.339Z,10.10
2022-10-31T08:10:35.365Z,9.57
2022-10-31T08:13:05.582Z,8.30
2022-10-31T08:15:38.197Z,8.53
2022-10-31T08:18:06.251Z,7.20
2022-10-31T08:20:34.255Z,6.70
2022-10-31T08:23:04.890Z,7.10
2022-10-31T08:25:38.374Z,6.43
2022-10-31T08:28:07.467Z,8.57
2022-10-31T08:30:38.360Z,7.07
2022-10-31T08:33:08.063Z,5.17
2022-10-31T08:35:36.122Z,6.10
2022-10-31T08:38:04.770Z,5.77
2022-10-31T08:40:34.180Z,9.70
2022-10-31T08:43:04.035Z,6.63
2022-10-31T08:45:33.879Z,5.70
2022-10-31T08:48:05.379Z,6.57
2022-10-31T08:50:35.256Z,5.83
2022-10-31T08:53:05.653Z,6.07
2022-10-31T08:55:44.538Z,7.90
2022-10-31T08:58:17.194Z,6.70
2022-10-31T09:00:46.235Z,6.40
2022-10-31T09:03:18.503Z,7.00
2022-10-31T09:05:46.788Z,7.07
2022-10-31T09:08:16.932Z,6.80
2022-10-31T09:10:46.079Z,5.43
2022-10-31T09:13:15.937Z,6.57
2022-10-31T09:15:45.885Z,8.27
2022-10-31T09:18:17.681Z,8.80
2022-10-31T09:20:46.943Z,8.83
2022-10-31T09:23:40.638Z,7.17
2022-10-31T09:26:08.605Z,5.73
2022-10-31T09:32:30.573Z,8.37
2022-10-31T09:35:06.396Z,6.63
2022-10-31T09:37:41.899Z,6.20
2022-10-31T09:40:35.974Z,7.50
2022-10-31T09:43:14.979Z,6.90
2022-10-31T09:45:51.623Z,5.30
2022-10-31T09:48:46.564Z,9.83
2022-10-31T09:51:20.542Z,6.00
2022-10-31T09:53:53.965Z,10.43
2022-10-31T09:56:37.739Z,7.37
2022-10-31T09:59:35.888Z,6.13
2022-10-31T10:02:06.972Z,5.90
2022-10-31T10:04:44.583Z,5.80
2022-10-31T10:07:21.169Z,5.87
2022-10-31T10:09:49.177Z,6.43
2022-10-31T10:12:25.542Z,4.97
2022-10-31T10:15:09.080Z,7.87
2022-10-31T10:17:49.203Z,5.83
2022-10-31T10:20:27.956Z,6.33
2022-10-31T10:23:08.437Z,5.60
2022-10-31T10:25:41.813Z,5.30
2022-10-31T10:28:19.282Z,4.70
2022-10-31T10:30:50.823Z,5.30
2022-10-31T10:33:22.196Z,6.00
2022-10-31T10:35:55.181Z,7.57
2022-10-31T10:38:32.206Z,6.60
2022-10-31T10:41:02.808Z,6.40
2022-10-31T10:43:35.330Z,5.90
2022-10-31T10:46:35.588Z,6.37
2022-10-31T10:49:26.233Z,5.67
2022-10-31T10:52:19.339Z,6.10
2022-10-31T10:55:04.989Z,4.43
2022-10-31T10:57:50.044Z,7.43
2022-10-31T11:00:21.496Z,5.90
2022-10-31T11:02:50.301Z,4.47
2022-10-31T11:05:25.771Z,4.00
2022-10-31T11:07:54.049Z,5.20
2022-10-31T11:10:23.468Z,4.53
2022-10-31T11:13:22.364Z,5.60
2022-10-31T11:15:58.726Z,4.97
2022-10-31T11:18:29.252Z,5.00
2022-10-31T11:20:59.215Z,5.27
2022-10-31T11:23:29.306Z,4.50
2022-10-31T11:26:00.805Z,5.20
2022-10-31T11:28:31.197Z,6.17
2022-10-31T11:31:01.128Z,5.10
2022-10-31T11:33:33.500Z,6.00
2022-10-31T11:36:02.771Z,7.67
2022-10-31T11:38:36.368Z,6.73
2022-10-31T11:41:14.916Z,4.70
2022-10-31T11:43:50.487Z,5.87
2022-10-31T11:46:23.549Z,9.27
2022-10-31T11:48:54.953Z,8.20
2022-10-31T11:51:24.251Z,8.10
2022-10-31T11:53:56.991Z,6.00
2022-10-31T11:56:29.931Z,9.03
2022-10-31T11:58:58.625Z,10.80
2022-10-31T12:01:28.504Z,5.67
2022-10-31T12:04:04.114Z,5.87
2022-10-31T12:06:35.935Z,7.00
2022-10-31T12:09:04.085Z,5.63
2022-10-31T12:11:46.607Z,9.10
2022-10-31T12:14:33.182Z,8.20
2022-10-31T12:17:07.278Z,5.33
2022-10-31T12:19:44.266Z,6.50
2022-10-31T12:22:20.527Z,6.10
2022-10-31T12:25:02.505Z,5.77
2022-10-31T12:27:49.769Z,9.50
2022-10-31T12:30:22.037Z,6.10
2022-10-31T12:33:25.238Z,5.63
2022-10-31T12:36:03.981Z,4.10
2022-10-31T12:38:50.852Z,5.80
2022-10-31T12:41:30.147Z,5.10
2022-10-31T12:44:08.370Z,5.70
2022-10-31T12:47:00.701Z,6.13
2022-10-31T12:49:41.010Z,4.77
2022-10-31T12:52:22.340Z,6.97
2022-10-31T12:55:05.640Z,6.67
2022-10-31T12:57:38.147Z,6.50
2022-10-31T13:00:15.096Z,6.23
2022-10-31T13:02:48.367Z,6.13
2022-10-31T13:05:33.574Z,6.20
2022-10-31T13:08:07.519Z,5.07
2022-10-31T13:10:42.055Z,5.53
2022-10-31T13:13:18.070Z,11.70
2022-10-31T13:15:52.594Z,5.03
2022-10-31T13:18:27.149Z,4.87
2022-10-31T13:20:57.119Z,6.77
2022-10-31T13:23:49.619Z,4.03
2022-10-31T13:26:25.873Z,6.53
2022-10-31T13:29:01.607Z,7.00
2022-10-31T13:31:30.997Z,6.47
2022-10-31T13:34:04.392Z,7.57
2022-10-31T13:36:39.605Z,6.00
2022-10-31T13:39:27.111Z,4.93
2022-10-31T13:42:01.841Z,7.87
2022-10-31T13:44:35.851Z,6.73
2022-10-31T13:47:26.074Z,8.00
2022-10-31T13:50:04.776Z,6.90
2022-10-31T13:52:32.738Z,5.73
2022-10-31T13:55:00.698Z,10.00
2022-10-31T13:57:34.600Z,5.60
2022-10-31T14:00:06.417Z,7.50
2022-10-31T14:02:38.082Z,5.87
2022-10-31T14:05:18.647Z,8.03
2022-10-31T14:07:48.763Z,6.70
2022-10-31T14:10:26.716Z,6.33
2022-10-31T14:13:04.373Z,6.70
2022-10-31T14:15:32.917Z,6.90
2022-10-31T14:18:04.842Z,6.90
2022-10-31T14:20:41.079Z,5.60
2022-10-31T14:23:34.242Z,9.60
2022-10-31T14:26:20.179Z,10.63
2022-10-31T14:28:49.334Z,9.07
2022-10-31T14:31:35.752Z,6.50
2022-10-31T14:34:21.499Z,5.50
2022-10-31T14:37:14.736Z,5.77
2022-10-31T14:40:00.147Z,6.67
2022-10-31T14:42:42.194Z,6.53
2022-10-31T14:45:22.759Z,7.63
2022-10-31T14:48:10.672Z,5.10
2022-10-31T14:50:47.871Z,6.20
2022-10-31T14:53:20.612Z,5.10
2022-10-31T14:55:53.653Z,5.37
2022-10-31T14:58:25.545Z,6.87
2022-10-31T15:00:56.365Z,5.57
2022-10-31T15:03:29.915Z,4.50
2022-10-31T15:06:02.642Z,6.93
2022-10-31T15:08:36.313Z,6.10
2022-10-31T15:11:15.776Z,6.10
2022-10-31T15:13:45.901Z,5.10
2022-10-31T15:16:17.426Z,5.80
2022-10-31T15:18:55.394Z,8.67
2022-10-31T15:21:26.965Z,5.47
2022-10-31T15:23:57.321Z,8.00
2022-10-31T15:26:28.850Z,5.43
2022-10-31T15:29:01.818Z,6.80
2022-10-31T15:31:30.108Z,5.60
2022-10-31T15:34:02.736Z,9.30
2022-10-31T15:36:35.697Z,9.17
2022-10-31T15:39:05.665Z,14.23
2022-10-31T15:41:36.933Z,10.70
2022-10-31T15:44:13.583Z,8.70
2022-10-31T15:46:41.814Z,7.50
2022-10-31T15:49:31.618Z,12.23
2022-10-31T15:52:07.634Z,7.70
2022-10-31T15:54:36.714Z,7.67
2022-10-31T15:57:05.851Z,7.77
2022-10-31T15:59:33.916Z,6.77
2022-10-31T16:02:03.799Z,10.40
2022-10-31T16:04:32.253Z,7.33
2022-10-31T16:07:18.745Z,8.13
2022-10-31T16:09:55.521Z,6.97
2022-10-31T16:12:24.584Z,10.83
2022-10-31T16:14:54.018Z,7.40
2022-10-31T16:17:26.028Z,9.60
2022-10-31T16:19:58.243Z,7.45
2022-10-31T16:22:30.052Z,9.93
2022-10-31T16:25:03.037Z,9.23
2022-10-31T16:27:34.497Z,10.90
2022-10-31T16:30:05.472Z,8.60
2022-10-31T16:32:36.464Z,8.27
2022-10-31T16:35:25.314Z,8.07
2022-10-31T16:37:54.886Z,8.27
2022-10-31T16:40:23.092Z,10.60
2022-10-31T16:42:51.103Z,12.73
2022-10-31T16:45:22.492Z,9.47
2022-10-31T16:47:50.925Z,7.20
2022-10-31T16:50:21.961Z,10.40
2022-10-31T16:55:45.763Z,9.83
2022-10-31T16:58:19.597Z,21.43
2022-10-31T17:00:48.058Z,14.80
2022-10-31T17:03:16.101Z,16.53
2022-10-31T17:05:44.094Z,39.10
2022-10-31T17:08:12.155Z,14.07
2022-10-31T17:10:42.734Z,16.40
2022-10-31T17:13:18.167Z,37.10
2022-10-31T17:15:49.445Z,18.00
2022-10-31T17:18:22.791Z,12.27
2022-10-31T17:20:57.913Z,10.00
2022-10-31T17:23:26.115Z,11.43
2022-10-31T17:25:55.389Z,13.77
2022-10-31T17:28:23.297Z,17.10
2022-10-31T17:30:51.280Z,17.77
2022-10-31T17:33:19.381Z,27.07
2022-10-31T17:35:47.368Z,51.03
2022-10-31T17:38:15.316Z,23.30
2022-10-31T17:40:43.521Z,35.43
2022-10-31T17:43:13.342Z,26.07
2022-10-31T17:45:42.801Z,28.80
2022-10-31T17:48:12.881Z,26.77
2022-10-31T17:50:40.926Z,25.70
2022-10-31T17:53:08.920Z,26.53
2022-10-31T17:55:37.666Z,30.40
2022-10-31T17:58:06.190Z,27.13
2022-10-31T18:00:35.785Z,23.33
2022-10-31T18:03:04.938Z,18.83
2022-10-31T18:05:33.277Z,16.37
2022-10-31T18:08:04.227Z,14.80
2022-10-31T18:10:32.584Z,16.13
2022-10-31T18:13:00.933Z,13.57
2022-10-31T18:15:29.194Z,14.53
2022-10-31T18:17:58.647Z,15.70
2022-10-31T18:20:26.773Z,11.57
2022-10-31T18:22:55.166Z,12.83
2022-10-31T18:25:23.084Z,10.93
2022-10-31T18:27:51.256Z,9.87
2022-10-31T18:30:19.464Z,10.43
2022-10-31T18:32:50.504Z,7.80
2022-10-31T18:35:20.056Z,8.10
2022-10-31T18:37:48.034Z,7.93
2022-10-31T18:40:16.478Z,9.20
2022-10-31T18:42:44.594Z,9.67
2022-10-31T18:45:31.194Z,10.80
2022-10-31T18:48:00.831Z,9.57
2022-10-31T18:50:30.257Z,10.57
2022-10-31T18:52:58.484Z,52.97
2022-10-31T18:55:26.564Z,51.70
2022-10-31T18:57:54.469Z,48.73
2022-10-31T19:00:22.502Z,17.07
2022-10-31T19:02:50.609Z,11.80
2022-10-31T19:05:19.246Z,11.70
2022-10-31T19:07:48.863Z,10.60
2022-10-31T19:10:17.028Z,10.80
2022-10-31T19:12:44.978Z,9.97
2022-10-31T19:15:12.890Z,10.67
2022-10-31T19:17:40.797Z,11.63
2022-10-31T19:20:09.994Z,10.80
2022-10-31T19:22:37.899Z,10.33
2022-10-31T19:25:10.686Z,12.40
2022-10-31T19:27:39.472Z,10.73
2022-10-31T19:30:09.100Z,11.07
2022-10-31T19:32:37.355Z,13.07
2022-10-31T19:35:09.016Z,19.10
2022-10-31T19:37:37.271Z,16.03
2022-10-31T19:40:08.688Z,13.03
2022-10-31T19:42:36.847Z,11.50
2022-10-31T19:45:05.708Z,13.03
2022-10-31T19:47:34.612Z,12.90
2022-10-31T19:50:04.851Z,11.93
2022-10-31T19:52:35.928Z,11.97
2022-10-31T19:55:04.391Z,12.47
2022-10-31T19:58:00.302Z,13.80
2022-10-31T20:00:25.037Z,12.37
2022-10-31T20:02:52.996Z,13.77
2022-10-31T20:05:20.945Z,12.40
2022-10-31T20:07:48.868Z,12.00
2022-10-31T20:10:17.208Z,13.57
2022-10-31T20:12:46.586Z,13.43
2022-10-31T20:15:16.269Z,17.27
2022-10-31T20:17:44.516Z,19.60
2022-10-31T20:20:12.947Z,20.37
2022-10-31T20:22:40.920Z,16.10
2022-10-31T20:25:09.386Z,17.87
2022-10-31T20:27:37.351Z,16.43
2022-10-31T20:30:09.778Z,16.53
2022-10-31T20:32:37.818Z,11.03
2022-10-31T20:35:06.461Z,11.60
2022-10-31T20:37:34.439Z,11.70
2022-10-31T20:40:02.479Z,11.75
2022-10-31T20:42:30.462Z,13.40
2022-10-31T20:45:01.210Z,13.13
2022-10-31T20:47:31.610Z,13.90
2022-10-31T20:49:59.542Z,11.23
2022-10-31T20:52:27.510Z,12.30
2022-10-31T20:54:55.446Z,13.60
2022-10-31T20:57:23.380Z,13.73
2022-10-31T20:59:51.319Z,13.73
2022-10-31T21:02:19.378Z,12.83
2022-10-31T21:04:48.714Z,11.03
2022-10-31T21:07:16.795Z,11.40
2022-10-31T21:09:44.703Z,12.93
2022-10-31T21:12:12.621Z,11.03
2022-10-31T21:14:40.558Z,11.23
2022-10-31T21:17:08.721Z,11.47
2022-10-31T21:19:36.784Z,13.13
2022-10-31T21:22:06.034Z,15.67
2022-10-31T21:24:34.118Z,14.33
2022-10-31T21:27:06.262Z,13.93
2022-10-31T21:29:36.573Z,12.03
2022-10-31T21:32:04.528Z,12.30
2022-10-31T21:34:32.586Z,11.70
2022-10-31T21:37:00.539Z,10.97
2022-10-31T21:39:29.899Z,11.40
2022-10-31T21:41:57.926Z,10.73
2022-10-31T21:44:25.844Z,11.23
2022-10-31T21:46:54.589Z,11.07
2022-10-31T21:49:22.537Z,13.80
2022-10-31T21:51:50.447Z,18.43
2022-10-31T21:54:30.248Z,18.37
2022-10-31T21:57:01.786Z,17.57
2022-10-31T21:59:30.174Z,15.90
2022-10-31T22:02:00.484Z,14.13
2022-10-31T22:04:29.497Z,14.90
2022-10-31T22:06:57.434Z,14.13
2022-10-31T22:09:25.338Z,13.77
2022-10-31T22:11:53.243Z,14.00
2022-10-31T22:14:22.546Z,11.47
2022-10-31T22:16:50.498Z,10.67
2022-10-31T22:19:18.417Z,11.53
2022-10-31T22:21:48.760Z,11.60
2022-10-31T22:24:18.521Z,12.80
2022-10-31T22:26:46.420Z,11.53
2022-10-31T22:29:16.141Z,13.60
2022-10-31T22:31:48.490Z,11.17
2022-10-31T22:34:19.600Z,12.40
2022-10-31T22:36:47.778Z,14.33
2022-10-31T22:39:16.251Z,11.67
2022-10-31T22:41:44.168Z,11.33
2022-10-31T22:44:12.927Z,11.77
2022-10-31T22:46:41.212Z,12.07
2022-10-31T22:49:15.118Z,11.53
2022-10-31T22:51:44.162Z,12.37
2022-10-31T22:54:14.265Z,11.73
2022-10-31T22:56:42.201Z,11.53
2022-10-31T22:59:13.119Z,13.30
2022-10-31T23:01:41.258Z,13.57
2022-10-31T23:06:44.059Z,13.10
2022-10-31T23:09:15.321Z,14.27
2022-10-31T23:11:45.361Z,13.90
2022-10-31T23:14:16.287Z,12.80
2022-10-31T23:16:46.165Z,11.83
2022-10-31T23:19:18.628Z,11.47
2022-10-31T23:21:59.597Z,10.27
2022-10-31T23:24:30.862Z,14.67
2022-10-31T23:27:10.895Z,11.90
2022-10-31T23:29:42.100Z,10.57
2022-10-31T23:32:12.976Z,11.17
2022-10-31T23:34:42.336Z,10.90
2022-10-31T23:37:10.690Z,10.63
2022-10-31T23:39:38.583Z,10.37
2022-10-31T23:42:06.875Z,10.93
2022-10-31T23:44:34.959Z,11.87
2022-10-31T23:47:02.915Z,10.33
2022-10-31T23:49:30.825Z,10.43
2022-10-31T23:52:00.105Z,11.60
2022-10-31T23:54:28.875Z,11.97
2022-10-31T23:56:58.199Z,10.27
2022-10-31T23:59:26.758Z,11.63
